Time;durP1;ratioP1;P1;durP2;ratioP2;P2;SDS_P1;SDS_P2;PMS_P1;PMS_P2;Temp;Humidity;BMP_temperature;BMP_pressure;BME280_temperature;BME280_humidity;BME280_pressure;Samples;Min_cycle;Max_cycle;Signal;HPM_P1;HPM_P2
2021/07/18 00:01:31;;;;;;;6.67;6.00;;;21.30;99.90;;;;;;5037598;28;20238;-55
2021/07/18 00:03:57;;;;;;;7.00;6.40;;;21.30;99.90;;;;;;5035871;28;20216;-59
2021/07/18 00:06:22;;;;;;;6.83;6.13;;;21.50;99.90;;;;;;5037547;28;20182;-58
2021/07/18 00:08:48;;;;;;;8.40;6.85;;;21.60;99.90;;;;;;5036114;28;20223;-56
2021/07/18 00:11:13;;;;;;;6.32;5.78;;;21.70;99.90;;;;;;5037224;28;20171;-54
2021/07/18 00:13:39;;;;;;;6.97;6.32;;;21.80;99.90;;;;;;5037604;28;20179;-58
2021/07/18 00:16:04;;;;;;;6.78;6.18;;;21.90;99.90;;;;;;5037355;28;20172;-59
2021/07/18 00:18:30;;;;;;;6.85;6.25;;;21.90;99.90;;;;;;5037347;28;20192;-59
2021/07/18 00:20:55;;;;;;;7.53;6.75;;;22.00;99.90;;;;;;5036985;28;20180;-55
2021/07/18 00:23:22;;;;;;;8.82;5.80;;;22.00;99.90;;;;;;5037041;28;20207;-61
2021/07/18 00:25:47;;;;;;;6.75;6.07;;;22.10;99.90;;;;;;5036215;28;20189;-58
2021/07/18 00:28:13;;;;;;;6.43;5.93;;;22.10;99.90;;;;;;5037186;28;20203;-59
2021/07/18 00:30:38;;;;;;;6.55;5.53;;;22.10;99.90;;;;;;5036515;28;20172;-56
2021/07/18 00:33:06;;;;;;;6.50;5.90;;;22.10;99.90;;;;;;5036566;28;20177;-61
2021/07/18 00:35:32;;;;;;;7.20;5.97;;;22.10;99.90;;;;;;5037219;28;20206;-59
2021/07/18 00:37:58;;;;;;;6.72;6.07;;;22.10;99.90;;;;;;5035798;28;20212;-62
2021/07/18 00:40:24;;;;;;;6.05;5.55;;;22.10;99.90;;;;;;5036103;28;20517;-57
2021/07/18 00:42:50;;;;;;;6.47;5.88;;;22.10;99.90;;;;;;5036017;28;20675;-59
2021/07/18 00:45:15;;;;;;;6.15;5.55;;;22.10;99.90;;;;;;5034603;28;20629;-62
2021/07/18 00:47:42;;;;;;;6.82;6.15;;;22.10;99.90;;;;;;5034527;28;20219;-62
2021/07/18 00:50:12;;;;;;;6.47;5.35;;;22.10;99.90;;;;;;5034504;28;20588;-62
2021/07/18 00:52:37;;;;;;;5.72;5.20;;;22.20;99.90;;;;;;5034273;28;20168;-60
2021/07/18 00:55:05;;;;;;;6.32;5.72;;;22.10;99.90;;;;;;5034644;28;20174;-55
2021/07/18 00:57:32;;;;;;;5.85;5.32;;;22.10;99.90;;;;;;5034183;28;20222;-59
2021/07/18 01:00:00;;;;;;;6.47;5.88;;;22.10;99.90;;;;;;5035291;28;20579;-58
2021/07/18 01:02:26;;;;;;;6.68;6.00;;;22.10;99.90;;;;;;5036363;28;20532;-57
2021/07/18 01:04:52;;;;;;;7.93;6.33;;;22.10;99.90;;;;;;5036682;28;20262;-61
2021/07/18 01:07:18;;;;;;;6.80;5.80;;;22.20;99.90;;;;;;5036814;28;20200;-59
2021/07/18 01:09:43;;;;;;;6.07;5.57;;;22.10;99.90;;;;;;5036143;28;20260;-60
2021/07/18 01:12:09;;;;;;;6.53;5.93;;;22.10;99.90;;;;;;5036211;28;20196;-61
2021/07/18 01:14:35;;;;;;;6.13;5.63;;;22.00;99.90;;;;;;5036206;28;20255;-61
2021/07/18 01:17:01;;;;;;;6.30;5.70;;;22.00;99.90;;;;;;5036289;28;20307;-57
2021/07/18 01:19:28;;;;;;;5.83;5.33;;;22.00;99.90;;;;;;5036232;28;20639;-59
2021/07/18 01:22:02;;;;;;;5.80;5.30;;;22.00;99.90;;;;;;5035715;28;20176;-59
2021/07/18 01:24:29;;;;;;;5.70;5.18;;;22.00;99.90;;;;;;5036111;28;20625;-62
2021/07/18 01:26:55;;;;;;;6.05;5.45;;;21.90;99.90;;;;;;5036017;28;20183;-60
2021/07/18 01:29:22;;;;;;;5.70;5.20;;;22.00;99.90;;;;;;5036093;28;20172;-54
2021/07/18 01:31:48;;;;;;;5.97;5.17;;;22.00;99.90;;;;;;5035761;28;20175;-61
2021/07/18 01:34:15;;;;;;;5.90;5.40;;;22.00;99.90;;;;;;5035921;28;20208;-56
2021/07/18 01:36:40;;;;;;;5.20;4.80;;;22.00;99.90;;;;;;5035746;28;20226;-60
2021/07/18 01:39:08;;;;;;;6.53;5.25;;;22.00;99.90;;;;;;5036035;28;20176;-59
2021/07/18 01:41:35;;;;;;;5.32;4.82;;;22.00;99.90;;;;;;5035574;28;20184;-56
2021/07/18 01:44:04;;;;;;;5.30;4.80;;;22.00;99.90;;;;;;5035717;28;20215;-59
2021/07/18 01:46:30;;;;;;;5.27;4.77;;;22.00;99.90;;;;;;5035901;28;20175;-62
2021/07/18 01:48:57;;;;;;;4.90;4.40;;;22.00;99.90;;;;;;5035671;28;20188;-57
2021/07/18 01:51:24;;;;;;;5.40;4.57;;;21.90;99.90;;;;;;5035354;28;20168;-58
2021/07/18 01:53:53;;;;;;;5.15;4.60;;;21.90;99.90;;;;;;5035699;28;20180;-55
2021/07/18 01:56:19;;;;;;;5.10;4.60;;;21.90;99.90;;;;;;5035413;28;20177;-56
2021/07/18 01:58:47;;;;;;;6.47;5.47;;;21.60;99.90;;;;;;5035476;28;20200;-60
2021/07/18 02:01:12;;;;;;;6.22;5.63;;;21.50;99.90;;;;;;5035353;28;20636;-60
2021/07/18 02:03:38;;;;;;;6.70;5.25;;;21.50;99.90;;;;;;5035219;28;20210;-60
2021/07/18 02:06:04;;;;;;;5.70;5.00;;;21.50;99.90;;;;;;5035332;28;20179;-56
2021/07/18 02:08:30;;;;;;;5.63;5.13;;;21.40;99.90;;;;;;5035011;28;20291;-58
2021/07/18 02:10:55;;;;;;;5.10;4.67;;;21.40;99.90;;;;;;5035277;28;20258;-60
2021/07/18 02:13:21;;;;;;;5.70;4.83;;;21.40;99.90;;;;;;5035270;28;20279;-62
2021/07/18 02:15:46;;;;;;;5.43;4.93;;;21.50;99.90;;;;;;5035146;28;20176;-60
2021/07/18 02:18:14;;;;;;;6.50;5.90;;;21.40;99.90;;;;;;5034257;28;20227;-60
2021/07/18 02:20:40;;;;;;;6.33;5.70;;;21.40;99.90;;;;;;5035057;28;20582;-62
2021/07/18 02:23:05;;;;;;;5.57;5.00;;;21.40;99.90;;;;;;5034846;28;20211;-58
2021/07/18 02:25:31;;;;;;;6.77;5.17;;;21.40;99.90;;;;;;5035122;28;20259;-56
2021/07/18 02:27:57;;;;;;;4.83;4.43;;;21.30;99.90;;;;;;5034798;28;20192;-60
2021/07/18 02:30:25;;;;;;;4.37;4.00;;;21.40;99.90;;;;;;5034953;28;20282;-58
2021/07/18 02:32:51;;;;;;;4.50;4.10;;;21.40;99.90;;;;;;5034609;28;20179;-61
2021/07/18 02:35:18;;;;;;;4.70;4.20;;;21.40;99.90;;;;;;5034680;28;20247;-62
2021/07/18 02:37:44;;;;;;;5.27;4.60;;;21.50;99.90;;;;;;5034669;28;20203;-61
2021/07/18 02:40:12;;;;;;;4.67;4.20;;;21.40;99.90;;;;;;5035015;28;20180;-60
2021/07/18 02:42:38;;;;;;;5.00;4.50;;;21.40;99.90;;;;;;5034269;28;20718;-62
2021/07/18 02:45:09;;;;;;;5.73;5.23;;;21.40;99.90;;;;;;5034419;28;20656;-60
2021/07/18 02:47:35;;;;;;;7.60;5.23;;;21.40;99.90;;;;;;5034451;28;20191;-59
2021/07/18 02:50:03;;;;;;;5.73;5.23;;;21.50;99.90;;;;;;5034657;28;20176;-61
2021/07/18 02:52:28;;;;;;;6.50;5.90;;;21.40;99.90;;;;;;5034336;28;20256;-61
2021/07/18 02:54:55;;;;;;;5.87;5.37;;;21.40;99.90;;;;;;5033503;28;20587;-55
2021/07/18 02:57:21;;;;;;;4.90;4.50;;;21.40;99.90;;;;;;5034028;28;20234;-57
2021/07/18 02:59:46;;;;;;;11.00;6.13;;;21.40;99.90;;;;;;5034084;28;20207;-61
2021/07/18 03:02:12;;;;;;;6.50;5.90;;;21.30;99.90;;;;;;5034037;28;20214;-60
2021/07/18 03:04:37;;;;;;;5.20;4.70;;;21.40;99.90;;;;;;5034294;28;20160;-59
2021/07/18 03:07:03;;;;;;;5.60;5.10;;;21.40;99.90;;;;;;5034288;28;20198;-62
2021/07/18 03:09:29;;;;;;;5.70;5.20;;;21.40;99.90;;;;;;5033971;28;20210;-61
2021/07/18 03:11:54;;;;;;;6.77;5.23;;;21.40;99.90;;;;;;5034054;28;20172;-61
2021/07/18 03:14:20;;;;;;;7.83;5.47;;;21.40;99.90;;;;;;5034135;28;20175;-60
2021/07/18 03:16:49;;;;;;;5.80;5.30;;;21.40;99.90;;;;;;5033854;28;20164;-60
2021/07/18 03:19:15;;;;;;;7.60;6.30;;;21.30;99.90;;;;;;5034084;28;20171;-59
2021/07/18 03:21:42;;;;;;;6.60;5.90;;;21.20;99.90;;;;;;5034096;28;20172;-59
2021/07/18 03:24:07;;;;;;;5.10;4.60;;;21.10;99.90;;;;;;5033973;28;20326;-61
2021/07/18 03:26:33;;;;;;;5.70;5.27;;;21.10;99.90;;;;;;5033731;28;20259;-61
2021/07/18 03:28:58;;;;;;;7.03;6.43;;;21.20;99.90;;;;;;5033043;28;20188;-57
2021/07/18 03:31:25;;;;;;;8.57;7.67;;;21.20;99.90;;;;;;5033841;28;20173;-59
2021/07/18 03:33:51;;;;;;;8.57;7.67;;;21.00;99.90;;;;;;5033752;28;20183;-55
2021/07/18 03:36:16;;;;;;;7.33;6.63;;;21.00;99.90;;;;;;5033913;28;20172;-61
2021/07/18 03:38:42;;;;;;;6.87;6.27;;;21.10;99.90;;;;;;5033799;28;20285;-60
2021/07/18 03:41:07;;;;;;;7.77;6.50;;;21.10;99.90;;;;;;5033726;28;20176;-58
2021/07/18 03:43:33;;;;;;;7.73;6.63;;;21.20;99.90;;;;;;5033736;28;20195;-61
2021/07/18 03:45:59;;;;;;;7.80;6.67;;;21.30;99.90;;;;;;5033657;28;20572;-61
2021/07/18 03:48:24;;;;;;;8.70;6.87;;;21.40;99.90;;;;;;5033635;28;20195;-57
2021/07/18 03:50:50;;;;;;;7.63;6.93;;;21.40;99.90;;;;;;5033739;28;20168;-59
2021/07/18 03:53:16;;;;;;;7.60;6.90;;;21.50;99.90;;;;;;5033612;28;20172;-55
2021/07/18 03:55:42;;;;;;;7.87;7.17;;;21.50;99.90;;;;;;5033675;28;20257;-60
2021/07/18 03:58:07;;;;;;;7.53;6.80;;;21.60;99.90;;;;;;5033335;28;20196;-59
2021/07/18 04:00:33;;;;;;;6.90;6.20;;;21.60;99.90;;;;;;5033524;28;20176;-61
2021/07/18 04:02:59;;;;;;;7.60;6.60;;;21.60;99.90;;;;;;5033519;28;20204;-59
2021/07/18 04:05:24;;;;;;;7.83;7.03;;;21.60;99.90;;;;;;5033708;28;20532;-59
2021/07/18 04:07:50;;;;;;;7.07;6.40;;;21.60;99.90;;;;;;5033399;28;20215;-58
2021/07/18 04:10:15;;;;;;;7.53;6.82;;;21.70;99.90;;;;;;5031945;28;20279;-59
2021/07/18 04:12:41;;;;;;;6.97;6.38;;;21.80;99.90;;;;;;5033263;28;20173;-59
2021/07/18 04:15:07;;;;;;;6.97;6.35;;;21.70;99.90;;;;;;5033612;28;20180;-55
2021/07/18 04:17:33;;;;;;;8.00;7.18;;;21.70;99.90;;;;;;5033212;28;20191;-59
2021/07/18 04:19:59;;;;;;;7.68;6.90;;;21.70;99.90;;;;;;5032030;28;20195;-61
2021/07/18 04:22:24;;;;;;;7.47;6.47;;;21.70;99.90;;;;;;5033001;28;20298;-59
2021/07/18 04:24:50;;;;;;;8.63;6.85;;;21.70;99.90;;;;;;5032259;28;20696;-61
2021/07/18 04:27:15;;;;;;;7.97;6.60;;;21.80;99.90;;;;;;5032845;28;20195;-56
2021/07/18 04:29:41;;;;;;;8.07;7.27;;;21.80;99.90;;;;;;5033422;28;20208;-55
2021/07/18 04:32:07;;;;;;;7.63;6.83;;;21.80;99.90;;;;;;5033189;28;20176;-59
2021/07/18 04:34:33;;;;;;;7.85;7.15;;;21.90;99.90;;;;;;5033111;28;20536;-60
2021/07/18 04:36:58;;;;;;;8.57;6.88;;;21.90;99.90;;;;;;5033369;28;20238;-56
2021/07/18 04:39:25;;;;;;;8.38;7.40;;;21.90;99.90;;;;;;5033133;28;20187;-59
2021/07/18 04:41:50;;;;;;;7.85;7.05;;;21.90;99.90;;;;;;5035973;28;20663;-60
2021/07/18 04:44:16;;;;;;;7.50;6.80;;;21.90;99.90;;;;;;5036857;28;20204;-60
2021/07/18 04:46:41;;;;;;;8.00;7.20;;;22.00;99.90;;;;;;5035951;28;20216;-58
2021/07/18 04:49:07;;;;;;;7.25;6.55;;;22.00;99.90;;;;;;5034825;28;20298;-60
2021/07/18 04:51:32;;;;;;;7.78;7.07;;;22.00;99.90;;;;;;5034791;28;20161;-60
2021/07/18 04:53:58;;;;;;;8.35;6.75;;;21.90;99.90;;;;;;5034636;28;20547;-61
2021/07/18 04:56:24;;;;;;;6.70;6.10;;;21.80;99.90;;;;;;5036447;28;20181;-53
2021/07/18 04:58:49;;;;;;;6.88;5.97;;;21.90;99.90;;;;;;5035380;28;20211;-59
2021/07/18 05:01:15;;;;;;;7.25;6.57;;;21.70;99.90;;;;;;5036244;28;20173;-58
2021/07/18 05:03:40;;;;;;;7.78;6.78;;;21.70;99.90;;;;;;5035497;28;20204;-56
2021/07/18 05:06:06;;;;;;;7.20;6.50;;;21.80;99.90;;;;;;5036490;28;20209;-59
2021/07/18 05:08:33;;;;;;;6.63;6.00;;;21.80;99.90;;;;;;5036093;28;20206;-62
2021/07/18 05:10:59;;;;;;;6.75;6.15;;;21.90;99.90;;;;;;5034918;28;20601;-58
2021/07/18 05:13:24;;;;;;;6.05;5.45;;;21.90;99.90;;;;;;5033927;28;20658;-59
2021/07/18 05:15:50;;;;;;;6.72;6.13;;;22.10;99.90;;;;;;5034035;28;20233;-57
2021/07/18 05:18:15;;;;;;;6.15;5.55;;;22.00;99.90;;;;;;5032954;28;20201;-59
2021/07/18 05:20:42;;;;;;;6.25;5.65;;;22.20;99.90;;;;;;5033969;28;20183;-61
2021/07/18 05:23:08;;;;;;;8.43;5.80;;;22.20;99.90;;;;;;5034539;28;20259;-58
2021/07/18 05:25:35;;;;;;;6.70;5.72;;;22.20;99.90;;;;;;5034594;28;20172;-58
2021/07/18 05:28:00;;;;;;;6.32;5.72;;;22.30;99.90;;;;;;5035241;28;20552;-59
2021/07/18 05:30:26;;;;;;;6.68;6.07;;;22.30;99.90;;;;;;5036007;28;20628;-56
2021/07/18 05:32:52;;;;;;;6.43;5.82;;;22.40;99.90;;;;;;5035785;28;20552;-59
2021/07/18 05:35:18;;;;;;;6.38;5.78;;;22.50;99.90;;;;;;5036018;28;20183;-59
2021/07/18 05:37:43;;;;;;;6.60;6.00;;;22.50;99.90;;;;;;5035513;28;20210;-61
2021/07/18 05:40:10;;;;;;;7.03;6.32;;;22.50;99.90;;;;;;5035960;28;20189;-60
2021/07/18 05:42:36;;;;;;;7.22;6.53;;;22.50;99.90;;;;;;5035512;28;20674;-59
2021/07/18 05:45:07;;;;;;;6.20;5.60;;;22.60;99.90;;;;;;5035112;28;20575;-54
2021/07/18 05:47:34;;;;;;;7.80;6.90;;;22.50;99.90;;;;;;5035401;28;20203;-59
2021/07/18 05:49:59;;;;;;;7.95;6.93;;;22.50;99.90;;;;;;5035833;28;20544;-59
2021/07/18 05:52:26;;;;;;;7.32;6.70;;;22.50;99.90;;;;;;5034489;28;20650;-58
2021/07/18 05:54:52;;;;;;;7.78;6.97;;;22.60;99.90;;;;;;5035652;28;20261;-56
2021/07/18 05:57:18;;;;;;;7.63;6.85;;;22.80;99.90;;;;;;5035253;28;20230;-62
2021/07/18 05:59:43;;;;;;;7.95;7.07;;;22.60;99.90;;;;;;5035493;28;20229;-61
2021/07/18 06:02:09;;;;;;;7.82;6.80;;;22.70;99.90;;;;;;5035087;28;20184;-62
2021/07/18 06:04:34;;;;;;;7.78;6.97;;;22.80;99.90;;;;;;5035476;28;20175;-56
2021/07/18 06:07:00;;;;;;;8.10;7.40;;;22.90;99.90;;;;;;5035417;28;20693;-59
2021/07/18 06:09:25;;;;;;;7.65;6.95;;;22.90;99.90;;;;;;5034950;28;20278;-57
2021/07/18 06:11:51;;;;;;;8.52;7.72;;;23.20;99.90;;;;;;5035106;28;20172;-61
2021/07/18 06:14:16;;;;;;;7.88;7.18;;;23.40;99.90;;;;;;5035099;28;20168;-59
2021/07/18 06:16:42;;;;;;;7.53;6.93;;;23.40;99.90;;;;;;5035069;28;20181;-61
2021/07/18 06:19:07;;;;;;;7.97;7.28;;;23.60;99.90;;;;;;5035194;28;20206;-55
2021/07/18 06:21:33;;;;;;;8.45;7.72;;;23.70;99.90;;;;;;5033399;28;20543;-62
2021/07/18 06:23:58;;;;;;;7.75;7.07;;;23.60;99.90;;;;;;5035070;28;20282;-61
2021/07/18 06:26:24;;;;;;;8.10;7.32;;;23.80;99.90;;;;;;5035912;28;20164;-59
2021/07/18 06:28:49;;;;;;;7.68;7.07;;;23.80;99.90;;;;;;5038014;28;20238;-62
2021/07/18 06:31:15;;;;;;;8.75;7.60;;;23.80;99.90;;;;;;5034461;28;20180;-59
2021/07/18 06:33:41;;;;;;;8.40;7.50;;;23.90;99.90;;;;;;5034937;28;20190;-62
2021/07/18 06:36:06;;;;;;;8.18;7.40;;;23.80;99.90;;;;;;5034839;28;20168;-53
2021/07/18 06:38:35;;;;;;;8.60;7.90;;;23.80;99.90;;;;;;5034670;28;20227;-58
2021/07/18 06:41:01;;;;;;;8.23;7.43;;;23.80;99.90;;;;;;5034501;28;20263;-55
2021/07/18 06:43:26;;;;;;;8.77;7.88;;;23.70;99.90;;;;;;5034800;28;20326;-56
2021/07/18 06:45:52;;;;;;;8.43;7.72;;;23.70;99.90;;;;;;5038072;28;20302;-61
2021/07/18 06:48:17;;;;;;;9.50;7.95;;;23.90;99.90;;;;;;5034456;28;20270;-61
2021/07/18 06:50:43;;;;;;;9.32;8.52;;;23.90;99.90;;;;;;5034705;28;20168;-60
2021/07/18 06:53:08;;;;;;;9.25;7.80;;;23.70;99.90;;;;;;5034248;28;20187;-55
2021/07/18 06:55:35;;;;;;;8.43;7.63;;;24.80;99.90;;;;;;5034267;28;20184;-58
2021/07/18 06:58:01;;;;;;;8.52;7.72;;;23.80;99.90;;;;;;5034598;28;20215;-60
2021/07/18 07:00:27;;;;;;;8.93;8.07;;;23.90;99.90;;;;;;5034493;28;20202;-58
2021/07/18 07:02:53;;;;;;;9.45;8.23;;;23.90;99.90;;;;;;5037920;28;20665;-59
2021/07/18 07:05:19;;;;;;;8.68;7.88;;;24.00;99.90;;;;;;5034351;28;20184;-60
2021/07/18 07:07:47;;;;;;;8.85;7.95;;;24.10;99.90;;;;;;5034175;28;20202;-61
2021/07/18 07:10:15;;;;;;;9.15;8.27;;;24.00;99.90;;;;;;5034409;28;20188;-61
2021/07/18 07:12:41;;;;;;;8.63;7.82;;;24.10;99.90;;;;;;5034261;28;20180;-62
2021/07/18 07:15:09;;;;;;;9.35;8.43;;;24.20;99.90;;;;;;5034226;28;20183;-55
2021/07/18 07:17:35;;;;;;;9.18;8.38;;;24.30;99.90;;;;;;5034048;28;20275;-54
2021/07/18 07:20:00;;;;;;;8.88;8.07;;;24.40;99.90;;;;;;5037746;28;20638;-62
2021/07/18 07:22:26;;;;;;;10.65;8.07;;;24.20;99.90;;;;;;5033767;28;20200;-62
2021/07/18 07:24:52;;;;;;;9.40;8.40;;;24.30;99.90;;;;;;5033679;28;20229;-61
2021/07/18 07:27:17;;;;;;;10.85;8.10;;;24.40;99.90;;;;;;5033912;28;20192;-58
2021/07/18 07:29:43;;;;;;;10.75;8.90;;;24.50;99.90;;;;;;5033537;28;20203;-57
2021/07/18 07:32:08;;;;;;;8.75;7.85;;;24.50;99.90;;;;;;5033618;28;20647;-61
2021/07/18 07:34:34;;;;;;;10.18;9.27;;;24.50;99.90;;;;;;5034019;28;20521;-58
2021/07/18 07:37:00;;;;;;;9.27;8.48;;;24.30;99.90;;;;;;5034192;28;20203;-60
2021/07/18 07:39:25;;;;;;;9.48;8.63;;;24.40;99.90;;;;;;5033593;28;20163;-60
2021/07/18 07:41:51;;;;;;;10.07;9.02;;;24.40;99.90;;;;;;5033497;28;20251;-59
2021/07/18 07:44:16;;;;;;;9.80;8.73;;;24.40;99.90;;;;;;5033290;28;20552;-57
2021/07/18 07:46:44;;;;;;;10.15;9.10;;;24.40;99.90;;;;;;5033760;28;20620;-56
2021/07/18 07:49:10;;;;;;;9.85;8.95;;;24.30;99.90;;;;;;5033687;28;20628;-59
2021/07/18 07:51:36;;;;;;;9.77;8.85;;;24.20;99.90;;;;;;5033294;28;20255;-58
2021/07/18 07:54:01;;;;;;;10.48;9.57;;;24.10;99.90;;;;;;5034562;28;20211;-58
2021/07/18 07:56:27;;;;;;;10.57;9.55;;;24.20;99.90;;;;;;5032906;28;20179;-59
2021/07/18 07:58:52;;;;;;;10.93;9.93;;;23.90;99.90;;;;;;5032244;28;20636;-61
2021/07/18 08:01:18;;;;;;;10.70;9.63;;;23.90;99.90;;;;;;5033296;28;20195;-61
2021/07/18 08:03:44;;;;;;;12.45;9.75;;;23.90;99.90;;;;;;5033030;28;20202;-58
2021/07/18 08:06:09;;;;;;;11.50;10.38;;;23.80;99.90;;;;;;5030835;28;20648;-59
2021/07/18 08:08:35;;;;;;;10.90;9.90;;;23.80;99.90;;;;;;5032997;28;20226;-58
2021/07/18 08:11:01;;;;;;;12.10;10.25;;;23.80;99.90;;;;;;5032345;28;20245;-59
2021/07/18 08:13:27;;;;;;;10.68;9.57;;;23.70;99.90;;;;;;5033503;28;20536;-56
2021/07/18 08:15:53;;;;;;;11.25;10.00;;;23.80;99.90;;;;;;5033631;28;20654;-54
2021/07/18 08:18:18;;;;;;;10.82;9.82;;;23.70;99.90;;;;;;5037672;28;20207;-61
2021/07/18 08:20:44;;;;;;;11.20;10.20;;;23.70;99.90;;;;;;5036594;28;20182;-62
2021/07/18 08:23:10;;;;;;;10.75;9.65;;;23.70;99.90;;;;;;5037213;28;20204;-61
2021/07/18 08:25:35;;;;;;;10.82;9.93;;;23.70;99.90;;;;;;5037142;28;20599;-57
2021/07/18 08:28:01;;;;;;;12.10;10.60;;;23.80;99.90;;;;;;5037329;28;20275;-59
2021/07/18 08:30:26;;;;;;;11.65;10.55;;;23.80;99.90;;;;;;5035842;28;20219;-59
2021/07/18 08:32:52;;;;;;;11.05;9.95;;;23.80;99.90;;;;;;5036000;28;20175;-59
2021/07/18 08:35:18;;;;;;;11.32;10.32;;;23.90;99.90;;;;;;5035676;28;20180;-55
2021/07/18 08:37:44;;;;;;;12.02;10.73;;;24.10;99.90;;;;;;5036166;28;20195;-58
2021/07/18 08:40:11;;;;;;;11.85;10.85;;;24.30;99.90;;;;;;5037112;28;20191;-61
2021/07/18 08:42:38;;;;;;;12.85;10.65;;;24.50;99.90;;;;;;5036717;28;20206;-60
2021/07/18 08:45:05;;;;;;;12.20;10.98;;;24.70;99.90;;;;;;5037602;28;20172;-59
2021/07/18 08:47:31;;;;;;;11.95;10.95;;;24.70;99.90;;;;;;5033962;28;20264;-59
2021/07/18 08:49:57;;;;;;;12.07;10.80;;;24.60;99.90;;;;;;5036577;28;20249;-61
2021/07/18 08:52:24;;;;;;;11.68;10.68;;;24.60;99.90;;;;;;5034956;28;20168;-61
2021/07/18 08:54:51;;;;;;;12.57;11.43;;;24.40;99.90;;;;;;5035141;28;20176;-60
2021/07/18 08:57:19;;;;;;;12.38;11.18;;;24.40;99.90;;;;;;5036619;28;20399;-62
2021/07/18 08:59:45;;;;;;;12.82;11.73;;;24.40;99.90;;;;;;5036740;28;20259;-56
2021/07/18 09:02:11;;;;;;;11.60;10.55;;;24.50;99.90;;;;;;5036356;28;20551;-61
2021/07/18 09:04:37;;;;;;;12.38;11.27;;;24.50;99.90;;;;;;5036771;28;20251;-60
2021/07/18 09:07:05;;;;;;;11.82;10.70;;;24.50;99.90;;;;;;5032714;28;20290;-64
2021/07/18 09:09:32;;;;;;;12.52;11.25;;;24.60;99.90;;;;;;5034822;28;20639;-59
2021/07/18 09:12:05;;;;;;;11.65;10.65;;;24.70;99.90;;;;;;5035189;28;20211;-61
2021/07/18 09:14:35;;;;;;;12.18;11.07;;;24.90;99.90;;;;;;5035959;28;20208;-62
2021/07/18 09:17:01;;;;;;;12.80;11.55;;;25.20;99.90;;;;;;5035401;28;20571;-56
2021/07/18 09:19:30;;;;;;;11.70;10.70;;;25.30;99.90;;;;;;5038361;28;20169;-62
2021/07/18 09:22:14;;;;;;;12.32;10.98;;;25.50;99.90;;;;;;5036331;28;20192;-62
2021/07/18 09:25:00;;;;;;;11.25;10.23;;;25.60;99.90;;;;;;5036000;28;20230;-60
2021/07/18 09:27:28;;;;;;;11.85;10.85;;;25.60;99.90;;;;;;5034198;28;20203;-62
2021/07/18 09:30:03;;;;;;;11.05;9.85;;;25.60;99.90;;;;;;5035642;28;20172;-61
2021/07/18 09:32:30;;;;;;;11.13;10.15;;;25.50;99.90;;;;;;5036146;28;20690;-59
2021/07/18 09:35:17;;;;;;;10.88;9.88;;;25.50;99.90;;;;;;5035637;28;20180;-62
2021/07/18 09:37:44;;;;;;;10.82;9.82;;;25.60;99.90;;;;;;5034613;28;20525;-60
2021/07/18 09:40:24;;;;;;;11.07;10.00;;;25.70;99.90;;;;;;5035988;28;20662;-59
2021/07/18 09:42:50;;;;;;;10.93;9.93;;;25.90;99.90;;;;;;5035623;28;20199;-60
2021/07/18 09:45:24;;;;;;;10.73;9.82;;;26.00;99.90;;;;;;5035264;28;20230;-61
2021/07/18 09:47:59;;;;;;;11.00;9.90;;;26.20;99.90;;;;;;5035024;28;20727;-62
2021/07/18 09:53:26;;;;;;;10.07;9.20;;;26.80;99.90;;;;;;5014759;28;20578;-96
2021/07/18 09:56:12;;;;;;;10.55;9.65;;;27.20;99.90;;;;;;5029777;28;20184;-95
2021/07/18 10:08:48;;;;;;;9.32;8.52;;;28.30;99.90;;;;;;5040810;23;20766;-64
2021/07/18 10:11:19;;;;;;;9.45;8.60;;;28.40;99.90;;;;;;5005501;28;20165;-64
2021/07/18 10:13:47;;;;;;;9.48;8.45;;;28.50;99.90;;;;;;5003062;28;20205;-64
2021/07/18 10:16:13;;;;;;;9.13;8.23;;;28.60;99.90;;;;;;4996086;28;20173;-63
2021/07/18 10:18:41;;;;;;;9.40;8.50;;;28.70;99.90;;;;;;4994239;28;20613;-64
2021/07/18 10:21:08;;;;;;;8.45;7.75;;;28.90;99.90;;;;;;4993907;28;20223;-65
2021/07/18 10:23:36;;;;;;;11.02;8.13;;;29.10;99.90;;;;;;5001511;28;20223;-64
2021/07/18 10:26:02;;;;;;;8.80;8.05;;;29.30;99.90;;;;;;5010279;28;20662;-64
2021/07/18 10:28:28;;;;;;;9.23;8.43;;;29.50;99.90;;;;;;4995820;28;20386;-65
2021/07/18 10:30:59;;;;;;;9.43;8.48;;;29.50;99.90;;;;;;4992828;28;20297;-67
2021/07/18 10:33:26;;;;;;;9.48;8.57;;;29.70;99.90;;;;;;4988638;28;20212;-68
2021/07/18 10:35:54;;;;;;;9.13;8.20;;;29.70;99.90;;;;;;4992710;28;20256;-67
2021/07/18 10:38:25;;;;;;;8.50;7.70;;;30.10;99.90;;;;;;4992366;28;20592;-66
2021/07/18 10:40:56;;;;;;;9.13;8.30;;;30.20;99.90;;;;;;4993128;28;20204;-66
2021/07/18 10:43:35;;;;;;;9.20;8.40;;;30.20;99.90;;;;;;4992787;28;20272;-67
2021/07/18 10:46:01;;;;;;;8.40;7.68;;;30.20;99.90;;;;;;4994547;28;20554;-66
2021/07/18 10:48:56;;;;;;;9.10;8.30;;;30.50;99.90;;;;;;4994654;28;20180;-65
2021/07/18 10:51:34;;;;;;;9.25;8.32;;;30.20;99.90;;;;;;4934708;29;20188;-67
2021/07/18 10:54:17;;;;;;;8.85;7.95;;;29.80;99.90;;;;;;4935666;29;20274;-67
2021/07/18 10:56:45;;;;;;;9.80;9.00;;;29.70;99.90;;;;;;4935395;29;20179;-67
2021/07/18 10:59:35;;;;;;;9.55;8.63;;;29.40;99.90;;;;;;4935444;29;20262;-67
2021/07/18 11:02:09;;;;;;;9.77;8.77;;;29.40;99.90;;;;;;4935474;29;20652;-67
2021/07/18 11:04:49;;;;;;;10.40;9.50;;;29.30;99.90;;;;;;4936022;29;20207;-65
2021/07/18 11:07:20;;;;;;;10.50;9.55;;;29.30;99.90;;;;;;4919200;29;20175;-67
2021/07/18 11:10:12;;;;;;;10.10;9.20;;;29.10;99.90;;;;;;4934704;29;20703;-65
2021/07/18 11:12:44;;;;;;;9.98;9.00;;;29.00;99.90;;;;;;4929713;29;20211;-65
2021/07/18 11:15:15;;;;;;;10.77;9.80;;;28.70;99.90;;;;;;4935450;29;20187;-66
2021/07/18 11:18:00;;;;;;;9.73;8.85;;;28.60;99.90;;;;;;4935251;29;20238;-66
2021/07/18 11:20:56;;;;;;;10.40;9.43;;;28.60;99.90;;;;;;4936014;29;20236;-66
2021/07/18 11:23:39;;;;;;;10.32;9.43;;;28.30;99.90;;;;;;4934952;29;20697;-67
2021/07/18 11:26:04;;;;;;;10.25;9.35;;;28.10;99.90;;;;;;4935160;29;20186;-65
2021/07/18 11:28:30;;;;;;;11.07;10.07;;;28.00;99.90;;;;;;4991341;28;20185;-67
2021/07/18 11:31:11;;;;;;;10.90;9.98;;;27.90;99.90;;;;;;5014394;28;20712;-66
2021/07/18 11:34:03;;;;;;;10.70;9.60;;;27.80;99.90;;;;;;5006582;28;20201;-67
2021/07/18 11:36:31;;;;;;;11.18;10.13;;;27.70;99.90;;;;;;4977244;28;20182;-66
2021/07/18 11:38:59;;;;;;;10.55;9.55;;;27.60;99.90;;;;;;4975853;28;20205;-66
2021/07/18 11:41:29;;;;;;;10.27;9.38;;;27.50;99.90;;;;;;4973483;28;20184;-66
2021/07/18 11:44:01;;;;;;;10.57;9.23;;;27.60;99.90;;;;;;4974856;28;20284;-65
2021/07/18 11:46:31;;;;;;;9.93;8.93;;;27.80;99.90;;;;;;4975180;28;20174;-66
2021/07/18 11:49:01;;;;;;;11.48;10.43;;;27.80;99.90;;;;;;4975653;28;20174;-67
2021/07/18 11:51:28;;;;;;;10.80;9.80;;;27.90;99.90;;;;;;4974549;28;20166;-64
2021/07/18 11:53:57;;;;;;;10.63;9.68;;;28.00;99.90;;;;;;4975054;28;20277;-65
2021/07/18 11:56:27;;;;;;;11.15;10.05;;;27.70;99.90;;;;;;4977495;28;20174;-66
2021/07/18 11:58:59;;;;;;;10.55;9.63;;;27.80;99.90;;;;;;4975109;28;20178;-66
2021/07/18 12:01:29;;;;;;;11.98;10.48;;;27.80;99.90;;;;;;4975192;28;20173;-67
2021/07/18 12:03:57;;;;;;;10.85;9.85;;;27.70;99.90;;;;;;4974825;28;20225;-67
2021/07/18 12:06:27;;;;;;;10.18;9.20;;;27.80;99.90;;;;;;4976420;28;20677;-66
2021/07/18 12:08:54;;;;;;;10.80;9.70;;;27.80;99.90;;;;;;4974914;28;20233;-64
2021/07/18 12:11:29;;;;;;;10.45;9.48;;;28.00;99.90;;;;;;4975769;28;20253;-65
2021/07/18 12:13:57;;;;;;;11.05;10.00;;;27.90;99.90;;;;;;4977040;28;20672;-67
2021/07/18 12:16:25;;;;;;;11.05;10.15;;;27.80;99.90;;;;;;4994655;28;20178;-66
2021/07/18 12:18:52;;;;;;;11.38;10.18;;;27.90;99.90;;;;;;4994259;28;20253;-64
2021/07/18 12:21:22;;;;;;;10.38;9.38;;;28.10;99.90;;;;;;4994105;28;20212;-65
2021/07/18 12:24:28;;;;;;;11.68;10.48;;;27.90;99.90;;;;;;4993747;28;20231;-67
2021/07/18 12:27:06;;;;;;;11.48;10.43;;;27.70;99.90;;;;;;4994462;28;20560;-66
2021/07/18 12:29:36;;;;;;;11.48;10.27;;;27.40;99.90;;;;;;4994501;28;20251;-65
2021/07/18 12:32:03;;;;;;;12.18;11.00;;;27.20;99.90;;;;;;4994422;28;20268;-66
2021/07/18 12:34:42;;;;;;;11.73;10.68;;;27.20;99.90;;;;;;4994052;28;20197;-66
2021/07/18 12:37:21;;;;;;;11.45;10.45;;;27.10;99.90;;;;;;4994621;28;20233;-64
2021/07/18 12:39:59;;;;;;;11.48;10.35;;;27.10;99.90;;;;;;4974351;28;20271;-66
2021/07/18 12:42:39;;;;;;;11.70;10.60;;;26.90;99.90;;;;;;4973928;28;20166;-66
2021/07/18 12:45:15;;;;;;;12.00;10.75;;;26.80;99.90;;;;;;4974459;28;20174;-64
2021/07/18 12:47:42;;;;;;;12.18;10.98;;;27.00;99.90;;;;;;4974630;28;20550;-66
2021/07/18 12:50:19;;;;;;;11.45;10.38;;;27.30;99.90;;;;;;4974384;28;20174;-66
2021/07/18 12:53:12;;;;;;;11.00;10.00;;;27.60;99.90;;;;;;4974304;28;20202;-65
2021/07/18 12:55:44;;;;;;;11.27;10.07;;;28.00;99.90;;;;;;4976143;28;20182;-64
2021/07/18 12:58:17;;;;;;;11.05;9.85;;;28.40;99.90;;;;;;4974298;28;20236;-65
2021/07/18 13:00:48;;;;;;;10.85;9.75;;;28.80;99.90;;;;;;4974806;28;20611;-66